createdAt,value
2023-02-07T00:01:35.131Z,46.50
2023-02-07T00:04:02.982Z,46.24
2023-02-07T00:06:35.357Z,46.47
2023-02-07T00:09:07.082Z,46.38
2023-02-07T00:11:36.950Z,46.82
2023-02-07T00:14:04.971Z,46.64
2023-02-07T00:16:32.782Z,46.34
2023-02-07T00:19:00.877Z,46.33
2023-02-07T00:21:29.248Z,46.76
2023-02-07T00:23:57.798Z,46.60
2023-02-07T00:26:27.156Z,46.42
2023-02-07T00:28:56.170Z,46.75
2023-02-07T00:31:34.883Z,46.07
2023-02-07T00:34:06.164Z,46.21
2023-02-07T00:36:36.506Z,46.49
2023-02-07T00:39:12.743Z,46.31
2023-02-07T00:41:41.930Z,46.50
2023-02-07T00:44:10.183Z,46.76
2023-02-07T00:46:38.925Z,46.43
2023-02-07T00:49:07.548Z,46.29
2023-02-07T00:51:35.155Z,46.94
2023-02-07T00:54:03.298Z,46.46
2023-02-07T00:56:32.801Z,46.59
2023-02-07T00:59:00.754Z,46.50
2023-02-07T01:01:29.234Z,46.26
2023-02-07T01:03:57.725Z,46.40
2023-02-07T01:06:27.917Z,46.14
2023-02-07T01:08:59.103Z,46.24
2023-02-07T01:11:29.862Z,45.86
2023-02-07T01:14:02.759Z,45.95
2023-02-07T01:16:34.647Z,45.52
2023-02-07T01:19:08.737Z,45.40
2023-02-07T01:21:37.026Z,45.68
2023-02-07T01:24:06.321Z,45.67
2023-02-07T01:26:37.301Z,45.44
2023-02-07T01:29:06.248Z,45.28
2023-02-07T01:31:35.195Z,45.20
2023-02-07T01:34:05.507Z,44.71
2023-02-07T01:36:33.584Z,44.80
2023-02-07T01:39:01.315Z,45.03
2023-02-07T01:41:31.618Z,44.92
2023-02-07T01:44:22.394Z,44.76
2023-02-07T01:46:53.003Z,44.86
2023-02-07T01:49:27.088Z,44.88
2023-02-07T01:52:04.845Z,45.05
2023-02-07T01:54:34.883Z,44.63
2023-02-07T01:57:07.574Z,45.11
2023-02-07T01:59:39.079Z,44.76
2023-02-07T02:02:07.427Z,44.96
2023-02-07T02:04:35.110Z,44.48
2023-02-07T02:07:04.183Z,44.89
2023-02-07T02:09:32.077Z,44.93
2023-02-07T02:12:43.227Z,44.58
2023-02-07T02:15:26.416Z,44.62
2023-02-07T02:18:03.751Z,44.88
2023-02-07T02:21:38.314Z,44.91
2023-02-07T02:24:31.106Z,44.69
2023-02-07T02:27:22.616Z,44.46
2023-02-07T02:30:26.913Z,44.78
2023-02-07T02:33:18.712Z,44.62
2023-02-07T02:36:21.037Z,44.78
2023-02-07T02:39:27.844Z,44.84
2023-02-07T02:42:15.776Z,44.63
2023-02-07T02:45:21.933Z,44.74
2023-02-07T02:47:51.145Z,44.72
2023-02-07T02:50:23.929Z,44.75
2023-02-07T02:52:51.883Z,44.91
2023-02-07T02:56:45.600Z,44.59
2023-02-07T02:59:46.711Z,44.74
2023-02-07T03:02:53.285Z,44.85
2023-02-07T03:05:42.261Z,44.90
2023-02-07T03:08:40.088Z,44.57
2023-02-07T03:11:17.466Z,44.77
2023-02-07T03:13:57.014Z,44.67
2023-02-07T03:16:45.395Z,44.44
2023-02-07T03:19:59.774Z,44.89
2023-02-07T03:22:29.783Z,45.16
2023-02-07T03:25:01.440Z,45.04
2023-02-07T03:27:34.386Z,44.72
2023-02-07T03:30:08.932Z,44.82
2023-02-07T03:32:42.264Z,44.63
2023-02-07T03:35:16.661Z,44.36
2023-02-07T03:37:56.508Z,44.50
2023-02-07T03:40:29.773Z,44.80
2023-02-07T03:43:04.479Z,44.57
2023-02-07T03:45:32.425Z,44.59
2023-02-07T03:48:00.407Z,44.66
2023-02-07T03:50:28.239Z,44.80
2023-02-07T03:52:55.917Z,44.29
2023-02-07T03:55:23.694Z,44.73
2023-02-07T03:57:51.573Z,44.65
2023-02-07T04:00:19.885Z,44.89
2023-02-07T04:02:47.614Z,44.71
2023-02-07T04:05:15.722Z,44.89
2023-02-07T04:07:43.474Z,44.82
2023-02-07T04:10:12.286Z,44.86
2023-02-07T04:12:40.092Z,44.75
2023-02-07T04:15:09.739Z,44.96
2023-02-07T04:17:38.313Z,44.77
2023-02-07T04:20:07.294Z,44.74
2023-02-07T04:22:35.104Z,44.92
2023-02-07T04:25:02.938Z,44.78
2023-02-07T04:27:30.698Z,44.76
2023-02-07T04:29:58.634Z,44.93
2023-02-07T04:32:26.544Z,44.95
2023-02-07T04:34:54.349Z,44.81
2023-02-07T04:37:22.308Z,44.96
2023-02-07T04:39:50.003Z,44.97
2023-02-07T04:42:18.038Z,44.65
2023-02-07T04:44:45.805Z,44.55
2023-02-07T04:47:13.797Z,44.66
2023-02-07T04:49:41.680Z,44.79
2023-02-07T04:52:09.453Z,44.75
2023-02-07T04:54:37.243Z,44.88
2023-02-07T04:57:05.315Z,45.01
2023-02-07T04:59:33.105Z,44.73
2023-02-07T05:02:00.926Z,44.53
2023-02-07T05:04:28.755Z,44.66
2023-02-07T05:06:56.626Z,44.88
2023-02-07T05:09:24.428Z,44.86
2023-02-07T05:11:52.499Z,45.07
2023-02-07T05:14:20.690Z,44.75
2023-02-07T05:16:48.383Z,45.00
2023-02-07T05:19:16.133Z,45.03
2023-02-07T05:21:44.202Z,45.09
2023-02-07T05:24:11.967Z,45.15
2023-02-07T05:26:40.491Z,45.17
2023-02-07T05:29:08.389Z,45.36
2023-02-07T05:31:54.980Z,44.75
2023-02-07T05:34:24.096Z,45.19
2023-02-07T05:36:51.909Z,45.09
2023-02-07T05:39:19.621Z,45.30
2023-02-07T05:41:47.442Z,45.13
2023-02-07T05:44:15.232Z,44.90
2023-02-07T05:46:43.588Z,45.08
2023-02-07T05:49:11.571Z,44.81
2023-02-07T05:51:39.459Z,45.14
2023-02-07T05:54:07.250Z,45.15
2023-02-07T05:56:35.447Z,45.28
2023-02-07T05:59:03.265Z,44.98
2023-02-07T06:01:31.007Z,45.16
2023-02-07T06:03:58.659Z,45.00
2023-02-07T06:06:26.403Z,45.22
2023-02-07T06:08:54.349Z,45.08
2023-02-07T06:11:22.075Z,45.23
2023-02-07T06:13:49.803Z,44.89
2023-02-07T06:16:17.684Z,45.32
2023-02-07T06:18:45.456Z,45.27
2023-02-07T06:21:13.235Z,45.26
2023-02-07T06:23:41.394Z,44.92
2023-02-07T06:26:09.136Z,45.02
2023-02-07T06:28:36.967Z,45.23
2023-02-07T06:31:05.298Z,44.88
2023-02-07T06:33:33.329Z,45.32
2023-02-07T06:36:01.136Z,45.27
2023-02-07T06:38:29.071Z,45.17
2023-02-07T06:40:56.880Z,45.44
2023-02-07T06:43:24.774Z,45.08
2023-02-07T06:45:52.936Z,45.25
2023-02-07T06:48:20.629Z,45.24
2023-02-07T06:50:51.747Z,45.41
2023-02-07T06:53:19.492Z,44.99
2023-02-07T06:55:47.617Z,45.73
2023-02-07T06:58:15.579Z,45.82
2023-02-07T07:00:43.324Z,46.04
2023-02-07T07:03:16.067Z,45.61
2023-02-07T07:05:44.987Z,46.12
2023-02-07T07:08:15.392Z,45.84
2023-02-07T07:10:43.294Z,45.98
2023-02-07T07:13:11.557Z,45.71
2023-02-07T07:15:40.309Z,45.86
2023-02-07T07:18:08.444Z,45.49
2023-02-07T07:20:36.365Z,45.69
2023-02-07T07:23:04.561Z,45.50
2023-02-07T07:25:32.698Z,45.65
2023-02-07T07:28:00.599Z,45.90
2023-02-07T07:30:28.743Z,46.13
2023-02-07T07:32:56.505Z,45.75
2023-02-07T07:35:24.387Z,46.06
2023-02-07T07:37:52.199Z,45.55
2023-02-07T07:40:20.192Z,46.29
2023-02-07T07:42:48.690Z,45.86
2023-02-07T07:45:26.108Z,45.81
2023-02-07T07:47:55.030Z,46.27
2023-02-07T07:50:24.452Z,46.13
2023-02-07T07:52:52.384Z,45.98
2023-02-07T07:55:23.317Z,46.04
2023-02-07T07:57:52.731Z,46.09
2023-02-07T08:00:20.749Z,46.06
2023-02-07T08:02:48.584Z,46.16
2023-02-07T08:05:16.873Z,45.83
2023-02-07T08:07:46.213Z,45.99
2023-02-07T08:10:14.090Z,46.16
2023-02-07T08:12:43.919Z,46.16
2023-02-07T08:15:13.925Z,46.31
2023-02-07T08:17:43.400Z,45.93
2023-02-07T08:20:12.545Z,45.99
2023-02-07T08:22:40.630Z,45.77
2023-02-07T08:25:08.953Z,46.23
2023-02-07T08:27:37.421Z,45.71
2023-02-07T08:30:13.412Z,45.62
2023-02-07T08:32:42.609Z,45.83
2023-02-07T08:35:10.655Z,46.10
2023-02-07T08:37:39.188Z,45.93
2023-02-07T08:40:08.298Z,46.01
2023-02-07T08:42:36.098Z,45.95
2023-02-07T08:45:05.673Z,45.75
2023-02-07T08:47:33.762Z,45.49
2023-02-07T08:50:01.533Z,45.99
2023-02-07T08:52:41.588Z,45.68
2023-02-07T08:55:09.944Z,45.09
2023-02-07T08:57:38.862Z,45.33
2023-02-07T09:00:08.548Z,45.67
2023-02-07T09:02:37.947Z,45.05
2023-02-07T09:05:06.164Z,44.99
2023-02-07T09:07:35.115Z,44.94
2023-02-07T09:10:06.667Z,44.83
2023-02-07T09:12:35.427Z,45.03
2023-02-07T09:15:05.882Z,44.73
2023-02-07T09:17:34.814Z,44.84
2023-02-07T09:20:04.301Z,44.53
2023-02-07T09:22:33.154Z,44.43
2023-02-07T09:25:01.028Z,44.02
2023-02-07T09:27:28.988Z,44.38
2023-02-07T09:29:56.763Z,43.99
2023-02-07T09:32:25.735Z,43.85
2023-02-07T09:34:54.641Z,44.48
2023-02-07T09:37:22.387Z,44.38
2023-02-07T09:39:50.206Z,44.10
2023-02-07T09:42:39.137Z,44.07
2023-02-07T09:45:22.863Z,43.91
2023-02-07T09:47:59.184Z,43.92
2023-02-07T09:50:32.453Z,43.67
2023-02-07T09:53:15.607Z,43.91
2023-02-07T09:56:00.024Z,43.43
2023-02-07T09:58:59.291Z,43.68
2023-02-07T10:01:39.625Z,43.32
2023-02-07T10:04:22.273Z,43.27
2023-02-07T10:06:57.122Z,43.08
2023-02-07T10:09:30.109Z,43.32
2023-02-07T10:12:39.600Z,43.07
2023-02-07T10:15:25.485Z,42.98
2023-02-07T10:18:30.064Z,42.86
2023-02-07T10:21:09.658Z,42.95
2023-02-07T10:24:07.366Z,43.15
2023-02-07T10:26:49.308Z,42.98
2023-02-07T10:29:36.830Z,42.45
2023-02-07T10:32:15.725Z,42.82
2023-02-07T10:34:48.110Z,42.68
2023-02-07T10:37:23.122Z,42.33
2023-02-07T10:40:06.996Z,42.35
2023-02-07T10:42:37.952Z,42.38
2023-02-07T10:45:06.811Z,42.33
2023-02-07T10:47:40.138Z,42.54
2023-02-07T10:50:24.770Z,42.22
2023-02-07T10:52:58.991Z,42.38
2023-02-07T10:55:43.928Z,42.04
2023-02-07T10:58:24.181Z,42.21
2023-02-07T11:00:55.113Z,42.33
2023-02-07T11:03:25.851Z,42.19
2023-02-07T11:06:03.933Z,42.07
2023-02-07T11:08:35.567Z,42.52
2023-02-07T11:11:33.122Z,42.17
2023-02-07T11:14:07.314Z,42.05
2023-02-07T11:16:35.395Z,42.07
2023-02-07T11:19:06.191Z,41.78
2023-02-07T11:21:33.803Z,41.80
2023-02-07T11:24:13.461Z,41.66
2023-02-07T11:27:02.489Z,41.72
2023-02-07T11:29:37.260Z,42.23
2023-02-07T11:32:05.739Z,41.85
2023-02-07T11:34:54.533Z,41.32
2023-02-07T11:37:30.571Z,41.58
2023-02-07T11:40:23.121Z,41.20
2023-02-07T11:43:11.268Z,41.61
2023-02-07T11:45:43.488Z,41.76
2023-02-07T11:48:26.097Z,41.36
2023-02-07T11:50:58.005Z,41.79
2023-02-07T11:53:40.957Z,41.48
2023-02-07T11:56:33.348Z,41.81
2023-02-07T11:59:17.120Z,41.18
2023-02-07T12:01:52.465Z,41.28
2023-02-07T12:04:28.470Z,41.03
2023-02-07T12:07:13.450Z,41.31
2023-02-07T12:10:05.891Z,41.05
2023-02-07T12:13:05.302Z,40.99
2023-02-07T12:16:15.715Z,40.94
2023-02-07T12:19:19.123Z,41.01
2023-02-07T12:22:15.526Z,41.43
2023-02-07T12:25:22.776Z,41.13
2023-02-07T12:27:56.788Z,41.49
2023-02-07T12:30:51.726Z,40.99
2023-02-07T12:33:31.374Z,40.79
2023-02-07T12:36:19.601Z,41.61
2023-02-07T12:39:14.941Z,41.00
2023-02-07T12:41:52.984Z,41.12
2023-02-07T12:44:38.770Z,41.21
2023-02-07T12:47:40.707Z,40.98
2023-02-07T12:50:30.194Z,41.17
2023-02-07T12:53:24.171Z,40.42
2023-02-07T12:55:57.551Z,40.86
2023-02-07T12:58:25.427Z,41.21
2023-02-07T13:01:20.942Z,40.84
2023-02-07T13:04:16.193Z,40.65
2023-02-07T13:06:56.062Z,41.23
2023-02-07T13:09:52.249Z,40.60
2023-02-07T13:12:30.393Z,40.46
2023-02-07T13:15:25.207Z,40.40
2023-02-07T13:18:11.903Z,40.35
2023-02-07T13:21:14.750Z,39.90
2023-02-07T13:23:47.938Z,40.39
2023-02-07T13:26:21.297Z,40.50
2023-02-07T13:29:15.191Z,40.37
2023-02-07T13:32:02.747Z,39.84
2023-02-07T13:35:01.144Z,40.06
2023-02-07T13:37:49.286Z,39.75
2023-02-07T13:41:00.759Z,39.98
2023-02-07T13:44:09.059Z,39.96
2023-02-07T13:47:11.815Z,39.25
2023-02-07T13:49:58.617Z,40.16
2023-02-07T13:53:03.658Z,39.48
2023-02-07T13:55:41.310Z,39.69
2023-02-07T13:58:54.230Z,39.60
2023-02-07T14:01:32.351Z,39.50
2023-02-07T14:04:12.749Z,39.40
2023-02-07T14:07:21.702Z,39.49
2023-02-07T14:09:55.497Z,39.17
2023-02-07T14:12:28.668Z,39.48
2023-02-07T14:15:17.053Z,39.82
2023-02-07T14:17:44.710Z,38.81
2023-02-07T14:20:49.851Z,39.17
2023-02-07T14:23:21.086Z,38.89
2023-02-07T14:25:54.898Z,39.16
2023-02-07T14:28:36.302Z,38.98
2023-02-07T14:31:23.858Z,38.33
2023-02-07T14:34:14.499Z,38.54
2023-02-07T14:36:42.805Z,38.92
2023-02-07T14:39:19.662Z,38.80
2023-02-07T14:41:52.220Z,38.61
2023-02-07T14:44:35.354Z,38.39
2023-02-07T14:47:06.945Z,38.24
2023-02-07T14:49:50.234Z,38.27
2023-02-07T14:52:30.622Z,38.02
2023-02-07T14:55:49.620Z,38.37
2023-02-07T14:58:36.105Z,38.54
2023-02-07T15:01:13.080Z,38.22
2023-02-07T15:03:44.960Z,38.31
2023-02-07T15:06:31.976Z,38.13
2023-02-07T15:09:01.737Z,37.62
2023-02-07T15:11:31.045Z,37.84
2023-02-07T15:14:03.887Z,37.50
2023-02-07T15:16:38.283Z,37.18
2023-02-07T15:19:35.781Z,37.55
2023-02-07T15:22:17.076Z,37.64
2023-02-07T15:24:55.255Z,37.80
2023-02-07T15:27:27.621Z,37.30
2023-02-07T15:30:05.940Z,37.71
2023-02-07T15:32:45.397Z,37.45
2023-02-07T15:35:36.786Z,37.22
2023-02-07T15:38:30.463Z,37.35
2023-02-07T15:40:59.184Z,37.53
2023-02-07T15:43:30.907Z,37.67
2023-02-07T15:46:06.481Z,37.79
2023-02-07T15:48:54.606Z,37.68
2023-02-07T15:51:31.888Z,37.74
2023-02-07T15:54:01.670Z,37.62
2023-02-07T15:56:32.489Z,37.60
2023-02-07T15:59:11.246Z,37.37
2023-02-07T16:01:42.900Z,37.38
2023-02-07T16:04:11.692Z,37.45
2023-02-07T16:07:00.959Z,37.24
2023-02-07T16:09:47.341Z,37.13
2023-02-07T16:12:44.116Z,36.96
2023-02-07T16:15:37.871Z,36.95
2023-02-07T16:18:06.817Z,37.46
2023-02-07T16:20:36.078Z,37.33
2023-02-07T16:23:09.814Z,37.17
2023-02-07T16:25:38.033Z,36.83
2023-02-07T16:28:11.476Z,36.81
2023-02-07T16:30:41.434Z,36.82
2023-02-07T16:33:14.801Z,36.65
2023-02-07T16:35:42.852Z,36.90
2023-02-07T16:38:10.559Z,37.25
2023-02-07T16:40:38.802Z,36.88
2023-02-07T16:43:08.530Z,37.07
2023-02-07T16:45:39.116Z,36.71
2023-02-07T16:48:13.698Z,37.34
2023-02-07T16:50:41.758Z,37.59
2023-02-07T16:53:09.645Z,37.14
2023-02-07T16:55:39.171Z,37.40
2023-02-07T16:58:07.960Z,37.03
2023-02-07T17:00:35.925Z,37.04
2023-02-07T17:03:04.418Z,37.10
2023-02-07T17:05:32.971Z,37.38
2023-02-07T17:08:01.085Z,37.08
2023-02-07T17:10:32.421Z,36.96
2023-02-07T17:13:00.239Z,37.07
2023-02-07T17:15:27.981Z,37.73
2023-02-07T17:17:58.652Z,37.30
2023-02-07T17:20:31.154Z,37.49
2023-02-07T17:22:58.989Z,37.61
2023-02-07T17:25:29.729Z,37.43
2023-02-07T17:27:59.240Z,37.41
2023-02-07T17:30:39.668Z,37.16
2023-02-07T17:33:09.905Z,37.31
2023-02-07T17:35:39.319Z,37.46
2023-02-07T17:38:07.164Z,37.84
2023-02-07T17:40:39.093Z,37.30
2023-02-07T17:43:08.207Z,38.02
2023-02-07T17:45:37.822Z,37.50
2023-02-07T17:48:06.650Z,37.87
2023-02-07T17:50:37.927Z,37.38
2023-02-07T17:53:06.432Z,37.50
2023-02-07T17:55:36.802Z,37.51
2023-02-07T17:58:05.068Z,37.55
2023-02-07T18:00:38.193Z,37.74
2023-02-07T18:03:08.235Z,37.60
2023-02-07T18:05:36.418Z,38.15
2023-02-07T18:08:05.419Z,37.63
2023-02-07T18:10:35.501Z,37.73
2023-02-07T18:13:03.510Z,37.51
2023-02-07T18:15:31.479Z,37.92
2023-02-07T18:17:59.266Z,37.97
2023-02-07T18:20:31.931Z,37.77
2023-02-07T18:23:01.101Z,37.62
2023-02-07T18:25:30.427Z,37.50
2023-02-07T18:27:58.400Z,38.06
2023-02-07T18:30:27.915Z,37.42
2023-02-07T18:32:55.791Z,37.72
2023-02-07T18:35:23.681Z,37.65
2023-02-07T18:37:52.066Z,37.97
2023-02-07T18:40:19.790Z,37.96
2023-02-07T18:42:47.518Z,38.15
2023-02-07T18:45:15.286Z,37.67
2023-02-07T18:47:43.792Z,37.55
2023-02-07T18:50:13.157Z,37.91
2023-02-07T18:52:40.916Z,38.01
2023-02-07T18:55:08.978Z,38.05
2023-02-07T18:57:36.707Z,37.73
2023-02-07T19:00:09.360Z,37.99
2023-02-07T19:02:37.276Z,38.07
2023-02-07T19:05:05.439Z,38.40
2023-02-07T19:07:33.440Z,37.77
2023-02-07T19:10:02.049Z,37.95
2023-02-07T19:12:29.896Z,38.37
2023-02-07T19:14:57.880Z,38.19
2023-02-07T19:17:25.626Z,38.34
2023-02-07T19:19:53.359Z,38.33
2023-02-07T19:22:30.112Z,38.39
2023-02-07T19:25:03.577Z,38.45
2023-02-07T19:27:31.397Z,38.52
2023-02-07T19:29:59.161Z,38.59
2023-02-07T19:32:26.873Z,38.59
2023-02-07T19:34:55.173Z,38.49
2023-02-07T19:37:23.005Z,38.68
2023-02-07T19:39:52.673Z,38.77
2023-02-07T19:42:20.541Z,38.97
2023-02-07T19:44:49.255Z,38.88
2023-02-07T19:47:17.145Z,38.90
2023-02-07T19:49:45.262Z,38.93
2023-02-07T19:52:13.144Z,39.21
2023-02-07T19:54:41.054Z,39.03
2023-02-07T19:57:08.838Z,38.97
2023-02-07T19:59:37.984Z,38.99
2023-02-07T20:02:05.991Z,38.91
2023-02-07T20:04:34.000Z,39.06
2023-02-07T20:07:02.844Z,39.05
2023-02-07T20:09:31.678Z,39.15
2023-02-07T20:11:59.796Z,39.20
2023-02-07T20:14:27.858Z,39.42
2023-02-07T20:16:56.045Z,39.25
2023-02-07T20:19:24.678Z,39.21
2023-02-07T20:21:53.878Z,39.40
2023-02-07T20:24:22.553Z,39.47
2023-02-07T20:26:51.333Z,39.44
2023-02-07T20:29:22.484Z,39.82
2023-02-07T20:31:52.236Z,39.85
2023-02-07T20:34:21.111Z,39.67
2023-02-07T20:36:49.658Z,39.77
2023-02-07T20:39:21.684Z,39.80
2023-02-07T20:41:50.644Z,39.60
2023-02-07T20:44:26.507Z,39.32
2023-02-07T20:46:56.799Z,39.56
2023-02-07T20:49:31.324Z,39.72
2023-02-07T20:51:59.749Z,39.76
2023-02-07T20:54:30.003Z,39.61
2023-02-07T20:56:58.734Z,39.73
2023-02-07T20:59:33.226Z,40.04
2023-02-07T21:02:02.379Z,40.10
2023-02-07T21:04:31.168Z,39.89
2023-02-07T21:06:59.483Z,39.93
2023-02-07T21:09:27.881Z,40.05
2023-02-07T21:11:56.739Z,40.24
2023-02-07T21:14:30.788Z,40.18
2023-02-07T21:17:06.320Z,40.17
2023-02-07T21:19:37.931Z,40.25
2023-02-07T21:22:07.143Z,40.24
2023-02-07T21:24:35.273Z,40.31
2023-02-07T21:27:05.069Z,40.53
2023-02-07T21:29:36.658Z,40.56
2023-02-07T21:32:05.585Z,40.75
2023-02-07T21:34:34.466Z,40.47
2023-02-07T21:37:03.247Z,40.68
2023-02-07T21:39:31.403Z,40.68
2023-02-07T21:41:59.283Z,40.40
2023-02-07T21:44:27.111Z,40.42
2023-02-07T21:46:55.061Z,40.42
2023-02-07T21:49:23.874Z,40.73
2023-02-07T21:51:53.724Z,40.68
2023-02-07T21:54:21.956Z,40.56
2023-02-07T21:56:50.884Z,40.38
2023-02-07T21:59:20.817Z,40.49
2023-02-07T22:01:50.138Z,40.43
2023-02-07T22:04:18.514Z,40.64
2023-02-07T22:06:48.157Z,40.41
2023-02-07T22:09:18.470Z,40.67
2023-02-07T22:11:46.401Z,40.71
2023-02-07T22:14:15.599Z,40.59
2023-02-07T22:16:44.237Z,40.41
2023-02-07T22:19:17.423Z,40.34
2023-02-07T22:21:47.206Z,40.68
2023-02-07T22:24:18.749Z,40.57
2023-02-07T22:26:47.116Z,40.90
2023-02-07T22:29:14.915Z,40.64
2023-02-07T22:31:43.241Z,41.06
2023-02-07T22:34:14.206Z,40.92
2023-02-07T22:36:45.386Z,40.76
2023-02-07T22:39:17.568Z,40.73
2023-02-07T22:41:46.886Z,40.97
2023-02-07T22:44:15.854Z,40.94
2023-02-07T22:46:44.646Z,41.19
2023-02-07T22:49:12.626Z,41.31
2023-02-07T22:51:40.515Z,41.49
2023-02-07T22:54:14.920Z,40.97
2023-02-07T22:56:44.945Z,41.16
2023-02-07T22:59:13.414Z,41.21
2023-02-07T23:01:42.795Z,41.41
2023-02-07T23:04:17.738Z,41.36
2023-02-07T23:06:47.448Z,41.58
2023-02-07T23:09:16.979Z,41.42
2023-02-07T23:11:46.030Z,41.82
2023-02-07T23:14:16.780Z,41.15
2023-02-07T23:16:45.325Z,41.58
2023-02-07T23:19:18.994Z,41.54
2023-02-07T23:21:47.937Z,41.66
2023-02-07T23:24:16.700Z,41.44
2023-02-07T23:26:44.947Z,41.65
2023-02-07T23:29:13.429Z,41.23
2023-02-07T23:31:41.691Z,41.45
2023-02-07T23:34:10.317Z,41.12
2023-02-07T23:36:39.567Z,41.47
2023-02-07T23:39:08.120Z,41.36
2023-02-07T23:41:37.789Z,41.18
2023-02-07T23:44:06.057Z,41.52
2023-02-07T23:46:35.593Z,41.37
2023-02-07T23:49:05.539Z,41.44
2023-02-07T23:51:34.137Z,41.40
2023-02-07T23:54:03.810Z,41.41
2023-02-07T23:56:32.168Z,41.26
2023-02-07T23:59:01.018Z,41.31
